Time;durP1;ratioP1;P1;durP2;ratioP2;P2;SDS_P1;SDS_P2;PMS_P1;PMS_P2;Temp;Humidity;BMP_temperature;BMP_pressure;BME280_temperature;BME280_humidity;BME280_pressure;Samples;Min_cycle;Max_cycle;Signal;HPM_P1;HPM_P2
2021/11/27 00:00:50;;;;;;;4.70;3.98;;;;;;;6.48;78.51;92219.42;1685937;84;21060;-59
2021/11/27 00:03:19;;;;;;;4.25;3.80;;;;;;;6.54;78.88;92199.11;1667246;84;21190;-58
2021/11/27 00:05:47;;;;;;;9.08;5.78;;;;;;;6.70;78.62;92208.07;1680050;84;20998;-59
2021/11/27 00:08:17;;;;;;;3.65;3.27;;;;;;;6.86;78.40;92209.47;1680044;84;21885;-59
2021/11/27 00:10:47;;;;;;;3.30;3.10;;;;;;;7.00;77.70;92205.83;1682191;84;21492;-58
2021/11/27 00:13:14;;;;;;;3.05;2.85;;;;;;;7.13;77.41;92194.02;1682226;84;20960;-57
2021/11/27 00:15:44;;;;;;;3.27;3.02;;;;;;;7.24;77.20;92204.27;1686425;83;21168;-57
2021/11/27 00:18:11;;;;;;;5.92;5.28;;;;;;;7.32;77.03;92195.13;1708844;83;20974;-57
2021/11/27 00:20:46;;;;;;;3.92;3.62;;;;;;;7.37;76.76;92204.61;1712702;83;21061;-56
2021/11/27 00:23:13;;;;;;;4.53;4.12;;;;;;;7.35;76.51;92199.62;1710429;83;21171;-57
2021/11/27 00:25:42;;;;;;;6.28;5.60;;;;;;;7.36;76.24;92202.48;1710057;83;21005;-57
2021/11/27 00:28:09;;;;;;;7.42;5.67;;;;;;;7.40;76.32;92203.02;1711198;83;21226;-57
2021/11/27 00:30:38;;;;;;;25.37;14.93;;;;;;;7.40;76.33;92204.39;1708499;83;21113;-56
2021/11/27 00:33:05;;;;;;;21.48;12.03;;;;;;;7.37;76.80;92199.88;1708406;83;21131;-56
2021/11/27 00:35:33;;;;;;;20.40;11.85;;;;;;;7.33;77.27;92203.46;1710398;83;21102;-58
2021/11/27 00:38:00;;;;;;;20.75;11.73;;;;;;;7.24;77.40;92205.03;1712210;83;21033;-57
2021/11/27 00:40:27;;;;;;;23.07;14.63;;;;;;;7.14;77.85;92198.23;1707848;83;21164;-57
2021/11/27 00:42:55;;;;;;;30.70;18.40;;;;;;;7.03;78.08;92202.14;1707843;83;21000;-56
2021/11/27 00:45:25;;;;;;;27.73;16.00;;;;;;;6.93;78.56;92208.41;1706518;83;21193;-56
2021/11/27 00:47:55;;;;;;;17.77;11.63;;;;;;;6.84;79.03;92192.78;1710550;83;21113;-56
2021/11/27 00:50:30;;;;;;;18.07;11.53;;;;;;;6.78;79.60;92201.56;1711464;83;20975;-57
2021/11/27 00:53:00;;;;;;;18.82;11.57;;;;;;;6.78;80.27;92191.99;1715071;83;21171;-57
2021/11/27 00:55:28;;;;;;;17.10;11.33;;;;;;;6.82;80.64;92190.55;1711582;83;21522;-57
2021/11/27 00:57:55;;;;;;;15.10;10.45;;;;;;;6.86;80.80;92186.23;1711405;83;20998;-57
2021/11/27 01:00:26;;;;;;;14.83;10.18;;;;;;;6.87;80.79;92195.94;1711360;83;21035;-57
2021/11/27 01:02:53;;;;;;;19.92;11.43;;;;;;;6.90;80.81;92189.50;1691922;83;21130;-57
2021/11/27 01:05:24;;;;;;;16.32;11.45;;;;;;;6.90;80.66;92186.13;1711612;83;21454;-57
2021/11/27 01:07:51;;;;;;;19.35;13.08;;;;;;;6.88;80.85;92177.67;1711255;83;20947;-57
2021/11/27 01:10:22;;;;;;;18.45;12.82;;;;;;;6.86;80.78;92182.88;1711580;83;21014;-57
2021/11/27 01:12:51;;;;;;;21.12;15.43;;;;;;;6.85;80.94;92186.11;1711297;83;21015;-57
2021/11/27 01:15:23;;;;;;;20.05;13.45;;;;;;;6.82;80.73;92195.25;1711520;83;21039;-57
2021/11/27 01:17:51;;;;;;;18.48;12.18;;;;;;;6.77;80.70;92182.30;1690020;83;21137;-55
2021/11/27 01:20:22;;;;;;;13.95;10.58;;;;;;;6.73;80.93;92187.24;1685296;83;21004;-57
2021/11/27 01:22:49;;;;;;;15.85;11.08;;;;;;;6.74;81.03;92186.01;1690093;83;21071;-57
2021/11/27 01:25:17;;;;;;;16.55;11.00;;;;;;;6.71;81.15;92189.71;1699176;83;21063;-58
2021/11/27 01:27:46;;;;;;;17.35;11.20;;;;;;;6.67;81.25;92198.11;1694328;83;21436;-56
2021/11/27 01:30:14;;;;;;;18.27;11.43;;;;;;;6.60;81.28;92204.02;1688963;83;22050;-58
2021/11/27 01:32:42;;;;;;;21.20;13.83;;;;;;;6.56;81.70;92205.47;1695439;83;20999;-57
2021/11/27 01:35:10;;;;;;;20.43;12.93;;;;;;;6.55;81.78;92197.14;1710219;83;21010;-57
2021/11/27 01:37:39;;;;;;;15.60;10.50;;;;;;;6.58;82.11;92196.94;1669958;84;21079;-58
2021/11/27 01:40:10;;;;;;;15.88;9.78;;;;;;;6.65;82.44;92193.76;1700239;83;21125;-56
2021/11/27 01:42:38;;;;;;;9.33;7.12;;;;;;;6.71;82.51;92206.10;1694005;83;21148;-56
2021/11/27 01:45:06;;;;;;;13.68;7.30;;;;;;;6.79;82.37;92217.48;1685350;83;20963;-56
2021/11/27 01:47:34;;;;;;;10.00;7.60;;;;;;;6.86;82.22;92232.05;1669911;85;21027;-56
2021/11/27 01:50:02;;;;;;;7.80;6.42;;;;;;;6.93;82.20;92245.91;1679701;84;21018;-56
2021/11/27 01:52:29;;;;;;;9.55;6.50;;;;;;;7.01;82.37;92237.38;1680560;83;21053;-57
2021/11/27 01:54:57;;;;;;;6.10;5.45;;;;;;;7.04;82.33;92237.17;1679033;84;21059;-58
2021/11/27 01:57:24;;;;;;;9.75;7.87;;;;;;;7.04;82.03;92228.97;1681056;83;21025;-57
2021/11/27 01:59:52;;;;;;;7.17;5.50;;;;;;;7.05;81.98;92231.11;1681875;84;20981;-57
2021/11/27 02:02:19;;;;;;;6.03;5.25;;;;;;;7.09;81.84;92218.09;1682713;83;21089;-56
2021/11/27 02:04:46;;;;;;;4.40;4.08;;;;;;;7.13;81.82;92223.34;1685223;84;21211;-57
2021/11/27 02:07:15;;;;;;;5.00;4.60;;;;;;;7.14;81.73;92211.17;1676893;83;21125;-57
2021/11/27 02:09:44;;;;;;;3.67;3.37;;;;;;;7.15;81.73;92219.50;1675631;83;20978;-58
2021/11/27 02:12:12;;;;;;;3.60;3.30;;;;;;;7.14;81.40;92224.84;1684325;84;21019;-55
2021/11/27 02:14:41;;;;;;;4.70;4.30;;;;;;;7.13;81.57;92226.81;1684054;84;21000;-56
2021/11/27 02:17:13;;;;;;;5.53;5.03;;;;;;;7.10;81.73;92233.25;1695331;83;21499;-56
2021/11/27 02:19:43;;;;;;;7.30;4.87;;;;;;;7.12;82.02;92236.25;1694722;83;21203;-57
2021/11/27 02:22:10;;;;;;;6.58;5.28;;;;;;;7.15;81.80;92239.38;1695382;83;20987;-56
2021/11/27 02:24:42;;;;;;;4.33;3.92;;;;;;;7.16;81.36;92240.88;1685982;83;20969;-57
2021/11/27 02:27:10;;;;;;;4.20;3.80;;;;;;;7.19;80.92;92235.06;1697274;83;20987;-56
2021/11/27 02:29:37;;;;;;;5.95;4.12;;;;;;;7.19;80.39;92245.36;1683415;83;21521;-57
2021/11/27 02:32:06;;;;;;;5.65;5.08;;;;;;;7.24;79.20;92246.05;1703205;83;21133;-58
2021/11/27 02:34:33;;;;;;;4.47;4.10;;;;;;;7.32;78.36;92240.25;1689880;83;20991;-57
2021/11/27 02:37:03;;;;;;;4.70;4.33;;;;;;;7.40;76.47;92230.38;1696373;83;21097;-58
2021/11/27 02:39:34;;;;;;;;;;;;;;;7.51;76.12;92242.73;1693107;83;21070;-57
2021/11/27 02:42:02;;;;;;;4.72;4.33;;;;;;;7.59;73.55;92254.73;1688046;83;20141;-58
2021/11/27 02:44:30;;;;;;;8.23;7.30;;;;;;;7.72;73.24;92234.52;1688068;83;21167;-57
2021/11/27 02:46:58;;;;;;;17.20;11.65;;;;;;;7.82;73.17;92228.99;1676563;84;21129;-58
2021/11/27 02:49:25;;;;;;;5.70;5.20;;;;;;;7.87;72.41;92231.00;1680391;83;20960;-58
2021/11/27 02:51:54;;;;;;;4.30;4.00;;;;;;;7.92;71.35;92227.53;1672923;84;21116;-58
2021/11/27 02:54:21;;;;;;;4.70;4.40;;;;;;;7.97;70.28;92229.57;1679195;84;21109;-57
2021/11/27 02:56:49;;;;;;;3.77;3.47;;;;;;;8.05;70.34;92225.11;1679851;84;21220;-57
2021/11/27 02:59:21;;;;;;;4.62;4.33;;;;;;;8.09;69.09;92228.36;1683563;84;21207;-58
2021/11/27 03:01:52;;;;;;;4.45;4.05;;;;;;;8.18;69.38;92222.71;1671941;84;21009;-57
2021/11/27 03:04:21;;;;;;;5.28;4.30;;;;;;;8.20;69.12;92218.86;1682918;84;21133;-57
2021/11/27 03:06:49;;;;;;;4.90;4.50;;;;;;;8.21;69.30;92228.56;1680520;84;21088;-56
2021/11/27 03:09:16;;;;;;;4.28;3.80;;;;;;;8.21;68.92;92224.45;1681190;83;21152;-57
2021/11/27 03:11:50;;;;;;;4.45;4.15;;;;;;;8.23;68.23;92231.56;1678551;84;21073;-58
2021/11/27 03:14:19;;;;;;;5.50;5.00;;;;;;;8.29;67.95;92231.58;1669089;85;21534;-57
2021/11/27 03:16:46;;;;;;;6.42;4.25;;;;;;;8.32;67.83;92235.47;1670147;83;21094;-57
2021/11/27 03:19:14;;;;;;;4.25;3.80;;;;;;;8.37;67.90;92237.47;1714812;82;21093;-55
2021/11/27 03:21:44;;;;;;;3.70;3.40;;;;;;;8.35;67.95;92226.25;1708500;82;20950;-56
2021/11/27 03:24:12;;;;;;;4.10;3.80;;;;;;;8.34;67.48;92230.84;1715889;82;21132;-57
2021/11/27 03:26:40;;;;;;;4.33;3.98;;;;;;;8.36;67.40;92225.02;1706809;82;21224;-57
2021/11/27 03:29:08;;;;;;;3.95;3.65;;;;;;;8.38;67.58;92226.63;1719430;82;21087;-57
2021/11/27 03:31:37;;;;;;;4.60;4.20;;;;;;;8.40;67.59;92223.41;1715727;83;21549;-58
2021/11/27 03:34:05;;;;;;;3.92;3.62;;;;;;;8.39;66.84;92215.80;1689273;83;21187;-57
2021/11/27 03:36:32;;;;;;;4.37;3.98;;;;;;;8.41;66.81;92218.80;1712859;82;21447;-57
2021/11/27 03:38:59;;;;;;;4.37;3.98;;;;;;;8.44;66.29;92221.91;1711984;82;21137;-57
2021/11/27 03:41:27;;;;;;;5.67;5.00;;;;;;;8.50;66.16;92226.04;1709314;83;21082;-56
2021/11/27 03:43:54;;;;;;;5.42;4.92;;;;;;;8.58;66.00;92227.07;1695507;83;21098;-57
2021/11/27 03:46:21;;;;;;;3.80;3.50;;;;;;;8.61;66.04;92226.81;1705801;83;21113;-58
2021/11/27 03:48:50;;;;;;;3.90;3.60;;;;;;;8.62;65.47;92217.98;1679016;83;21491;-59
2021/11/27 03:51:22;;;;;;;4.87;4.53;;;;;;;8.63;64.78;92211.98;1636342;84;21178;-58
2021/11/27 03:53:49;;;;;;;3.85;3.60;;;;;;;8.71;64.08;92234.18;1678600;84;21634;-57
2021/11/27 03:56:20;;;;;;;4.83;4.42;;;;;;;8.81;63.94;92221.11;1674005;84;21071;-57
2021/11/27 03:58:49;;;;;;;;;;;;;;;8.87;64.72;92251.28;1671209;84;21148;-57
2021/11/27 04:01:18;;;;;;;4.08;3.77;;;;;;;8.86;64.10;92242.93;1680881;84;20203;-58
2021/11/27 04:03:46;;;;;;;4.17;3.77;;;;;;;8.86;63.59;92218.26;1669815;84;21408;-57
2021/11/27 04:06:14;;;;;;;4.28;3.87;;;;;;;8.87;63.08;92220.52;1675447;84;21210;-57
2021/11/27 04:08:43;;;;;;;4.45;3.98;;;;;;;8.90;62.97;92226.37;1676879;83;21083;-57
2021/11/27 04:11:10;;;;;;;4.05;3.80;;;;;;;8.93;63.20;92232.23;1677884;84;21095;-58
2021/11/27 04:13:38;;;;;;;4.00;3.80;;;;;;;8.93;63.51;92228.88;1674864;84;21064;-57
2021/11/27 04:16:06;;;;;;;4.25;3.95;;;;;;;8.91;63.79;92225.13;1673765;84;21077;-57
2021/11/27 04:18:34;;;;;;;3.52;3.22;;;;;;;8.88;63.27;92234.95;1676127;84;21056;-56
2021/11/27 04:21:01;;;;;;;3.20;3.00;;;;;;;8.89;63.09;92233.83;1677689;84;21100;-57
2021/11/27 04:23:29;;;;;;;3.90;3.60;;;;;;;8.90;62.86;92225.00;1681081;84;21177;-57
2021/11/27 04:25:57;;;;;;;4.58;3.60;;;;;;;8.94;63.07;92220.02;1671767;84;21064;-57
2021/11/27 04:28:24;;;;;;;4.90;4.17;;;;;;;8.93;63.06;92242.59;1682270;84;20977;-57
2021/11/27 04:30:52;;;;;;;5.95;4.25;;;;;;;8.93;63.05;92234.97;1681517;83;21631;-56
2021/11/27 04:33:20;;;;;;;4.10;3.80;;;;;;;8.93;62.80;92229.48;1682837;84;21020;-57
2021/11/27 04:35:50;;;;;;;3.90;3.60;;;;;;;8.94;62.10;92209.80;1681454;84;21198;-56
2021/11/27 04:38:19;;;;;;;4.28;3.87;;;;;;;8.97;61.76;92230.74;1680046;84;21403;-58
2021/11/27 04:40:46;;;;;;;4.45;4.05;;;;;;;9.00;62.26;92231.11;1680182;84;21000;-57
2021/11/27 04:43:17;;;;;;;4.05;3.65;;;;;;;8.99;62.70;92221.39;1679251;84;21041;-57
2021/11/27 04:45:44;;;;;;;6.62;4.20;;;;;;;8.91;62.88;92233.34;1677761;84;21108;-57
2021/11/27 04:48:11;;;;;;;4.17;3.87;;;;;;;8.83;63.17;92239.81;1689206;83;21167;-57
2021/11/27 04:50:39;;;;;;;7.00;6.30;;;;;;;8.76;63.28;92247.16;1708448;83;21113;-58
2021/11/27 04:53:09;;;;;;;9.38;8.48;;;;;;;8.72;63.50;92233.70;1709623;83;21022;-58
2021/11/27 04:55:37;;;;;;;4.35;4.05;;;;;;;8.69;63.47;92254.48;1707604;83;21509;-57
2021/11/27 04:58:06;;;;;;;4.60;4.20;;;;;;;8.70;63.58;92247.15;1659478;83;21069;-56
2021/11/27 05:00:44;;;;;;;3.62;3.33;;;;;;;8.71;63.54;92240.42;1710467;83;21824;-58
2021/11/27 05:03:13;;;;;;;3.30;3.10;;;;;;;8.72;63.67;92238.41;1713216;83;20998;-58
2021/11/27 05:05:41;;;;;;;4.12;3.83;;;;;;;8.75;63.27;92242.29;1710169;82;21017;-57
2021/11/27 05:08:08;;;;;;;3.98;3.67;;;;;;;8.82;62.85;92228.09;1711810;83;21031;-57
2021/11/27 05:10:37;;;;;;;4.10;3.80;;;;;;;8.87;62.70;92246.55;1709657;83;21588;-58
2021/11/27 05:13:04;;;;;;;4.00;3.70;;;;;;;8.89;62.91;92237.21;1710508;83;21133;-57
2021/11/27 05:15:32;;;;;;;4.17;3.85;;;;;;;8.90;62.48;92248.30;1690895;83;21113;-58
2021/11/27 05:18:02;;;;;;;4.40;4.00;;;;;;;8.92;62.20;92245.81;1709252;83;20995;-57
2021/11/27 05:20:35;;;;;;;4.70;4.30;;;;;;;8.95;62.31;92232.47;1709230;83;20988;-57
2021/11/27 05:23:06;;;;;;;4.35;4.05;;;;;;;8.92;62.46;92228.72;1691345;83;21007;-58
2021/11/27 05:25:34;;;;;;;3.55;3.25;;;;;;;8.91;62.03;92222.38;1711576;83;22029;-57
2021/11/27 05:28:20;;;;;;;3.85;3.55;;;;;;;8.96;61.78;92232.59;1711455;83;21003;-57
2021/11/27 05:30:53;;;;;;;4.00;3.70;;;;;;;9.00;61.03;92222.12;1691735;83;21028;-58
2021/11/27 05:34:21;;;;;;;4.60;4.28;;;;;;;9.04;61.57;92234.98;1711433;83;21054;-57
2021/11/27 05:36:05;;;;;;;5.25;4.75;;;;;;;8.99;61.70;92223.38;1690354;83;20995;-57
2021/11/27 05:38:32;;;;;;;4.85;4.45;;;;;;;8.93;61.38;92226.14;1691690;83;21764;-58
2021/11/27 05:41:00;;;;;;;5.40;4.90;;;;;;;8.95;60.93;92236.59;1711432;83;21030;-57
2021/11/27 05:43:30;;;;;;;4.90;4.50;;;;;;;8.98;61.06;92223.25;1691777;83;21557;-57
2021/11/27 05:45:58;;;;;;;5.90;5.30;;;;;;;8.98;61.04;92221.88;1691485;83;21106;-58
2021/11/27 05:48:27;;;;;;;6.65;5.95;;;;;;;8.96;61.21;92236.71;1710585;83;21030;-57
2021/11/27 05:51:14;;;;;;;7.33;6.47;;;;;;;8.93;61.03;92231.62;1649822;86;21775;-58
2021/11/27 05:53:42;;;;;;;5.90;5.30;;;;;;;9.00;61.14;92227.00;1628066;87;21050;-58
2021/11/27 05:56:09;;;;;;;7.37;5.67;;;;;;;9.03;60.89;92238.98;1671464;83;21573;-58
2021/11/27 05:58:37;;;;;;;9.08;7.55;;;;;;;9.05;61.12;92229.63;1711649;83;21023;-58
2021/11/27 06:01:06;;;;;;;7.75;5.80;;;;;;;9.04;61.26;92243.22;1711364;83;21027;-58
2021/11/27 06:03:33;;;;;;;5.55;5.08;;;;;;;9.03;61.49;92238.34;1711471;83;21254;-57
2021/11/27 06:06:01;;;;;;;5.60;5.10;;;;;;;9.01;61.83;92250.43;1711158;83;21006;-57
2021/11/27 06:08:28;;;;;;;4.87;4.47;;;;;;;8.99;61.94;92253.53;1711530;83;21070;-57
2021/11/27 06:10:55;;;;;;;7.65;5.90;;;;;;;8.97;61.83;92265.63;1711305;83;21141;-58
2021/11/27 06:13:23;;;;;;;5.90;5.30;;;;;;;8.99;62.05;92276.84;1711488;83;20979;-58
2021/11/27 06:15:52;;;;;;;5.40;4.90;;;;;;;9.01;61.97;92282.57;1711511;83;21511;-59
2021/11/27 06:18:19;;;;;;;4.70;4.28;;;;;;;9.02;62.09;92275.84;1689644;83;21050;-57
2021/11/27 06:20:46;;;;;;;7.33;5.92;;;;;;;9.05;62.13;92276.24;1701622;83;21672;-58
2021/11/27 06:23:14;;;;;;;6.78;5.67;;;;;;;9.08;62.25;92286.21;1714589;82;21050;-57
2021/11/27 06:25:41;;;;;;;11.70;10.53;;;;;;;9.08;62.39;92293.07;1711844;82;20999;-58
2021/11/27 06:28:09;;;;;;;8.40;7.47;;;;;;;9.08;62.56;92295.81;1713240;82;21774;-58
2021/11/27 06:30:36;;;;;;;12.07;9.10;;;;;;;9.08;62.53;92309.52;1709857;82;21054;-58
2021/11/27 06:33:05;;;;;;;20.70;13.72;;;;;;;9.07;62.63;92314.25;1712914;82;20966;-57
2021/11/27 06:35:33;;;;;;;8.05;6.20;;;;;;;9.05;62.69;92325.60;1714177;82;21052;-57
2021/11/27 06:38:01;;;;;;;14.60;10.10;;;;;;;9.05;62.48;92337.94;1711668;82;21129;-60
2021/11/27 06:40:28;;;;;;;11.85;8.55;;;;;;;9.05;62.58;92325.60;1710686;82;21879;-58
2021/11/27 06:43:16;;;;;;;6.83;6.00;;;;;;;9.05;62.77;92336.56;1711534;83;20931;-58
2021/11/27 06:45:57;;;;;;;7.75;6.10;;;;;;;9.01;63.00;92351.12;1691494;83;21122;-58
2021/11/27 06:48:25;;;;;;;10.63;8.78;;;;;;;8.99;63.25;92371.43;1708479;82;21058;-58
2021/11/27 06:50:53;;;;;;;11.10;7.45;;;;;;;8.97;63.18;92356.09;1684885;83;21098;-57
2021/11/27 06:53:21;;;;;;;9.33;7.67;;;;;;;8.95;63.10;92361.33;1678005;84;21099;-58
2021/11/27 06:55:49;;;;;;;7.10;5.37;;;;;;;8.93;62.86;92373.41;1685751;83;21058;-58
2021/11/27 06:58:17;;;;;;;6.95;5.78;;;;;;;8.94;62.89;92387.25;1673617;84;21621;-59
2021/11/27 07:00:46;;;;;;;9.38;7.85;;;;;;;8.97;62.90;92389.00;1680636;83;21018;-62
2021/11/27 07:03:15;;;;;;;4.00;3.70;;;;;;;8.98;62.89;92394.61;1660743;84;21149;-57
2021/11/27 07:05:49;;;;;;;5.87;4.83;;;;;;;9.02;62.45;92404.71;1663442;84;21186;-58
2021/11/27 07:08:20;;;;;;;9.65;7.70;;;;;;;9.07;62.52;92395.78;1649393;86;21048;-58
2021/11/27 07:10:50;;;;;;;17.00;12.33;;;;;;;9.11;62.55;92397.66;1647516;86;21049;-59
2021/11/27 07:13:22;;;;;;;10.15;7.65;;;;;;;9.11;62.55;92405.88;1649745;86;21096;-58
2021/11/27 07:15:51;;;;;;;14.10;9.60;;;;;;;9.08;62.44;92398.01;1648726;86;21006;-62
2021/11/27 07:18:20;;;;;;;11.05;8.80;;;;;;;9.08;62.66;92408.98;1648999;86;21010;-58
2021/11/27 07:20:47;;;;;;;14.05;9.28;;;;;;;9.07;62.77;92419.09;1648787;87;21106;-59
2021/11/27 07:23:17;;;;;;;11.25;7.80;;;;;;;9.05;62.83;92427.06;1713115;83;21172;-60
2021/11/27 07:25:46;;;;;;;4.33;3.92;;;;;;;9.04;62.92;92422.82;1711497;83;20959;-59
2021/11/27 07:28:27;;;;;;;5.17;4.40;;;;;;;9.06;62.65;92434.05;1706048;83;21113;-58
2021/11/27 07:30:55;;;;;;;16.75;11.45;;;;;;;9.10;62.59;92429.06;1691354;83;21523;-58
2021/11/27 07:33:22;;;;;;;14.75;10.20;;;;;;;9.12;62.80;92430.69;1711293;83;20999;-59
2021/11/27 07:35:53;;;;;;;25.23;17.98;;;;;;;9.13;62.87;92434.32;1711604;83;20992;-59
2021/11/27 07:38:20;;;;;;;15.08;11.12;;;;;;;9.14;63.03;92433.69;1711578;83;21034;-58
2021/11/27 07:40:48;;;;;;;6.50;5.72;;;;;;;9.12;63.36;92425.97;1711536;83;21653;-59
2021/11/27 07:43:15;;;;;;;6.85;6.15;;;;;;;9.13;63.17;92429.45;1711830;83;21778;-58
2021/11/27 07:45:47;;;;;;;10.07;8.63;;;;;;;9.17;63.33;92440.92;1710054;83;21523;-59
2021/11/27 07:48:21;;;;;;;10.23;8.18;;;;;;;9.21;63.37;92440.82;1711728;83;21062;-60
2021/11/27 07:51:06;;;;;;;12.75;10.53;;;;;;;9.28;63.64;92440.33;1711428;83;20994;-59
2021/11/27 07:53:41;;;;;;;12.25;10.60;;;;;;;9.35;64.25;92443.22;1711567;83;21022;-60
2021/11/27 07:56:07;;;;;;;15.63;11.05;;;;;;;9.40;64.13;92448.00;1711459;83;21165;-60
2021/11/27 07:58:35;;;;;;;10.00;8.95;;;;;;;9.43;64.07;92466.21;1711499;83;21454;-59
2021/11/27 08:01:03;;;;;;;20.10;15.90;;;;;;;9.48;63.93;92477.21;1711329;83;20987;-58
2021/11/27 08:03:30;;;;;;;15.50;12.53;;;;;;;9.54;63.92;92471.72;1681123;83;21114;-58
2021/11/27 08:05:59;;;;;;;13.88;9.65;;;;;;;9.57;63.72;92476.21;1679167;83;21498;-58
2021/11/27 08:08:26;;;;;;;8.08;5.70;;;;;;;9.58;63.33;92472.25;1677844;84;21779;-57
2021/11/27 08:10:54;;;;;;;6.72;5.37;;;;;;;9.57;63.24;92473.47;1678937;84;21109;-57
2021/11/27 08:13:23;;;;;;;8.88;6.30;;;;;;;9.60;63.20;92469.75;1668202;85;20979;-58
2021/11/27 08:15:52;;;;;;;6.85;5.60;;;;;;;9.61;63.37;92476.10;1681680;84;21572;-60
2021/11/27 08:18:20;;;;;;;10.35;6.95;;;;;;;9.64;63.47;92482.61;1680582;84;21577;-58
2021/11/27 08:20:50;;;;;;;14.00;10.35;;;;;;;9.62;63.45;92488.58;1659553;84;21176;-59
2021/11/27 08:23:18;;;;;;;23.45;13.85;;;;;;;9.63;63.57;92493.47;1680468;84;21030;-58
2021/11/27 08:25:46;;;;;;;33.05;20.85;;;;;;;9.63;63.98;92505.81;1681279;84;20991;-60
2021/11/27 08:28:14;;;;;;;22.70;15.83;;;;;;;9.63;64.35;92511.30;1678719;84;21484;-62
2021/11/27 08:30:41;;;;;;;21.37;13.40;;;;;;;9.62;64.81;92509.17;1679687;84;21010;-63
2021/11/27 08:33:08;;;;;;;13.58;9.60;;;;;;;9.62;65.17;92507.80;1681165;84;21124;-58
2021/11/27 08:35:36;;;;;;;9.65;8.13;;;;;;;9.64;65.42;92503.93;1676433;85;20983;-59
2021/11/27 08:38:03;;;;;;;9.73;7.80;;;;;;;9.65;65.58;92518.42;1661478;85;21025;-59
2021/11/27 08:40:31;;;;;;;9.45;7.55;;;;;;;9.67;65.93;92524.16;1667148;84;21030;-59
2021/11/27 08:42:58;;;;;;;8.95;7.05;;;;;;;9.67;65.98;92520.05;1673370;83;21132;-58
2021/11/27 08:45:26;;;;;;;11.35;7.33;;;;;;;9.69;66.12;92529.30;1682062;84;21820;-63
2021/11/27 08:47:53;;;;;;;5.92;5.30;;;;;;;9.71;66.17;92526.80;1681041;83;21085;-58
2021/11/27 08:50:21;;;;;;;7.20;6.40;;;;;;;9.74;66.06;92526.41;1664953;84;21015;-60
2021/11/27 08:52:48;;;;;;;11.08;9.03;;;;;;;9.76;66.14;92529.44;1677435;84;21118;-59
2021/11/27 08:55:16;;;;;;;25.88;19.25;;;;;;;9.79;66.27;92532.56;1679270;84;20966;-59
2021/11/27 08:57:44;;;;;;;27.98;20.82;;;;;;;9.83;66.56;92532.43;1678351;84;21211;-59
2021/11/27 09:00:14;;;;;;;49.50;36.60;;;;;;;9.85;66.21;92538.81;1658997;85;21019;-60
2021/11/27 09:02:43;;;;;;;48.45;34.75;;;;;;;9.79;66.28;92533.94;1691120;82;21385;-58
2021/11/27 09:05:10;;;;;;;44.48;29.15;;;;;;;9.80;66.28;92533.42;1715414;83;20955;-58
2021/11/27 09:07:37;;;;;;;30.70;22.05;;;;;;;9.86;66.61;92540.31;1712211;82;21033;-59
2021/11/27 09:10:06;;;;;;;20.23;16.10;;;;;;;9.94;66.88;92542.69;1717854;83;21552;-58
2021/11/27 09:12:33;;;;;;;21.60;13.70;;;;;;;9.98;66.82;92539.10;1711475;83;21086;-58
2021/11/27 09:15:03;;;;;;;39.08;20.15;;;;;;;10.01;66.95;92539.48;1696025;83;21081;-59
2021/11/27 09:17:31;;;;;;;36.05;21.20;;;;;;;10.01;67.08;92535.36;1718459;82;21014;-58
2021/11/27 09:19:59;;;;;;;47.13;24.43;;;;;;;10.01;67.45;92551.84;1672131;83;21134;-56
2021/11/27 09:22:26;;;;;;;45.78;23.87;;;;;;;10.02;67.63;92542.38;1698871;82;21640;-57
2021/11/27 09:24:54;;;;;;;48.85;26.23;;;;;;;10.04;67.93;92546.14;1715124;82;20951;-60
2021/11/27 09:27:21;;;;;;;46.23;25.25;;;;;;;10.12;68.32;92545.00;1715722;82;21478;-58
2021/11/27 09:29:48;;;;;;;45.73;25.95;;;;;;;10.20;68.83;92544.66;1714230;82;21050;-57
2021/11/27 09:32:18;;;;;;;31.37;20.60;;;;;;;10.28;69.00;92551.16;1715687;82;22055;-61
2021/11/27 09:34:47;;;;;;;19.23;14.00;;;;;;;10.35;69.28;92554.80;1687092;82;21807;-58
2021/11/27 09:37:16;;;;;;;21.90;14.00;;;;;;;10.36;69.29;92560.42;1708983;83;21026;-59
2021/11/27 09:39:43;;;;;;;20.97;14.65;;;;;;;10.30;69.33;92568.66;1705221;83;21164;-62
2021/11/27 09:42:15;;;;;;;23.10;13.85;;;;;;;10.26;69.67;92570.91;1710799;82;21011;-57
2021/11/27 09:44:48;;;;;;;21.35;14.13;;;;;;;10.22;70.05;92570.41;1715764;82;20954;-58
2021/11/27 09:47:16;;;;;;;24.32;16.55;;;;;;;10.17;70.41;92566.27;1693788;82;21157;-59
2021/11/27 09:49:45;;;;;;;25.52;17.57;;;;;;;10.08;70.82;92576.86;1709676;83;21057;-57
2021/11/27 09:52:13;;;;;;;28.27;18.82;;;;;;;9.99;71.29;92578.41;1711336;82;21085;-59
2021/11/27 09:54:41;;;;;;;28.23;19.23;;;;;;;9.92;71.48;92585.00;1713555;82;21066;-59
2021/11/27 09:57:11;;;;;;;27.37;18.25;;;;;;;9.87;71.73;92587.88;1713488;82;21537;-58
2021/11/27 09:59:40;;;;;;;30.80;18.70;;;;;;;9.84;72.16;92583.36;1714062;82;21975;-59
2021/11/27 10:02:11;;;;;;;30.15;18.15;;;;;;;9.84;72.53;92586.73;1709055;82;21633;-57
2021/11/27 10:04:40;;;;;;;27.40;17.55;;;;;;;9.85;72.80;92590.98;1707442;83;21007;-58
2021/11/27 10:07:12;;;;;;;32.63;20.52;;;;;;;9.85;72.93;92603.34;1711376;83;21629;-58
2021/11/27 10:09:39;;;;;;;33.63;21.83;;;;;;;9.81;73.21;92603.57;1691744;83;21011;-59
2021/11/27 10:12:08;;;;;;;40.92;22.80;;;;;;;9.80;73.42;92602.70;1686332;83;21133;-60
2021/11/27 10:14:39;;;;;;;48.20;27.22;;;;;;;9.76;73.64;92603.57;1711223;83;20975;-57
2021/11/27 10:17:14;;;;;;;48.45;27.52;;;;;;;9.73;73.81;92603.16;1711203;83;21015;-60
2021/11/27 10:19:46;;;;;;;45.45;30.15;;;;;;;9.73;74.04;92601.18;1689683;83;21014;-58
2021/11/27 10:22:20;;;;;;;45.60;27.02;;;;;;;9.77;74.28;92600.95;1711434;83;20971;-58
2021/11/27 10:24:47;;;;;;;58.78;34.92;;;;;;;9.84;74.30;92603.22;1710661;83;21239;-59
2021/11/27 10:27:26;;;;;;;62.05;36.08;;;;;;;9.84;74.52;92606.70;1711124;83;21094;-61
2021/11/27 10:30:08;;;;;;;83.70;50.30;;;;;;;9.85;74.67;92606.09;1711267;83;21001;-58
2021/11/27 10:32:39;;;;;;;71.17;42.83;;;;;;;9.84;74.81;92619.69;1650473;86;20996;-58
2021/11/27 10:35:15;;;;;;;68.57;40.78;;;;;;;9.85;74.94;92615.70;1649246;86;21780;-58
2021/11/27 10:37:48;;;;;;;72.12;40.83;;;;;;;9.86;75.17;92615.83;1630447;87;21148;-58
2021/11/27 10:40:24;;;;;;;65.42;38.78;;;;;;;9.83;75.56;92620.94;1709085;83;21467;-58
2021/11/27 10:42:59;;;;;;;67.85;40.85;;;;;;;9.78;75.82;92618.92;1690226;83;21456;-58
2021/11/27 10:45:29;;;;;;;59.83;37.45;;;;;;;9.71;76.40;92618.00;1691088;83;21081;-61
2021/11/27 10:48:16;;;;;;;68.45;40.67;;;;;;;9.71;76.58;92620.14;1691787;83;21022;-62
2021/11/27 10:50:52;;;;;;;84.97;48.20;;;;;;;9.68;76.56;92623.11;1702286;83;21141;-62
2021/11/27 10:53:23;;;;;;;58.58;36.33;;;;;;;9.66;76.97;92620.84;1711344;83;21498;-58
2021/11/27 10:55:51;;;;;;;62.03;35.75;;;;;;;9.71;76.94;92622.89;1711371;83;21497;-58
2021/11/27 10:58:20;;;;;;;60.03;34.67;;;;;;;9.71;77.05;92627.61;1711314;83;21023;-58
2021/11/27 11:00:50;;;;;;;74.17;38.10;;;;;;;9.67;77.22;92627.86;1711553;83;21069;-62
2021/11/27 11:03:33;;;;;;;67.37;39.13;;;;;;;9.65;77.32;92626.20;1628478;86;21183;-58
2021/11/27 11:06:19;;;;;;;68.20;41.88;;;;;;;9.62;77.40;92625.09;1656083;85;21030;-59
2021/11/27 11:08:50;;;;;;;59.33;33.10;;;;;;;9.58;77.77;92630.80;1673170;85;21101;-59
2021/11/27 11:11:26;;;;;;;56.75;33.83;;;;;;;9.62;77.99;92640.19;1661166;85;21006;-61
2021/11/27 11:13:59;;;;;;;45.95;26.23;;;;;;;9.66;77.91;92635.20;1668749;85;21039;-58
2021/11/27 11:16:30;;;;;;;32.00;20.25;;;;;;;9.70;78.03;92637.09;1653043;85;21207;-58
2021/11/27 11:19:15;;;;;;;39.60;23.77;;;;;;;9.80;77.96;92641.88;1665513;84;20988;-58
2021/11/27 11:22:14;;;;;;;45.88;28.47;;;;;;;9.88;77.56;92642.93;1694525;82;21517;-58
2021/11/27 11:24:45;;;;;;;49.18;29.48;;;;;;;9.90;77.38;92642.42;1709282;83;21077;-59
2021/11/27 11:27:32;;;;;;;46.10;28.30;;;;;;;9.84;77.49;92654.02;1709606;83;21149;-60
2021/11/27 11:30:03;;;;;;;37.55;20.30;;;;;;;9.81;77.60;92652.99;1690623;83;21225;-59
2021/11/27 11:32:31;;;;;;;34.30;21.68;;;;;;;9.80;77.77;92653.50;1713112;83;21096;-57
2021/11/27 11:35:01;;;;;;;51.10;35.25;;;;;;;9.78;77.93;92663.59;1692506;83;21081;-59
2021/11/27 11:37:28;;;;;;;56.35;37.90;;;;;;;9.77;77.95;92660.72;1714717;83;21033;-59
2021/11/27 11:39:55;;;;;;;31.02;20.85;;;;;;;9.75;78.09;92663.81;1708489;83;21034;-58
2021/11/27 11:42:26;;;;;;;43.42;26.62;;;;;;;9.67;78.16;92662.79;1690376;83;21781;-60
2021/11/27 11:44:54;;;;;;;50.28;32.50;;;;;;;9.60;78.53;92670.13;1711414;83;20935;-58